createdAt,value
2023-01-29T00:01:12.228Z,1.16
2023-01-29T00:04:13.744Z,1.16
2023-01-29T00:07:15.198Z,1.22
2023-01-29T00:10:17.277Z,1.12
2023-01-29T00:13:18.889Z,1.09
2023-01-29T00:16:20.921Z,0.98
2023-01-29T00:19:22.349Z,0.94
2023-01-29T00:22:24.248Z,0.97
2023-01-29T00:25:25.651Z,1.07
2023-01-29T00:28:27.069Z,1.09
2023-01-29T00:31:28.937Z,1.06
2023-01-29T00:34:30.403Z,1.07
2023-01-29T00:37:31.905Z,0.99
2023-01-29T00:40:56.436Z,1.12
2023-01-29T00:44:17.285Z,1.16
2023-01-29T00:47:30.678Z,1.21
2023-01-29T00:50:32.480Z,1.24
2023-01-29T00:53:33.914Z,1.20
2023-01-29T00:56:36.618Z,1.23
2023-01-29T00:59:38.153Z,1.23
2023-01-29T01:02:57.909Z,1.19
2023-01-29T01:06:09.110Z,1.05
2023-01-29T01:09:29.686Z,0.99
2023-01-29T01:12:31.911Z,0.87
2023-01-29T01:15:40.308Z,0.75
2023-01-29T01:18:42.084Z,0.75
2023-01-29T01:21:45.417Z,0.75
2023-01-29T01:24:46.798Z,0.71
2023-01-29T01:27:48.301Z,0.75
2023-01-29T01:30:49.716Z,0.79
2023-01-29T01:33:51.555Z,0.74
2023-01-29T01:36:58.357Z,0.72
2023-01-29T01:39:59.820Z,0.83
2023-01-29T01:43:02.191Z,0.79
2023-01-29T01:46:03.671Z,0.68
2023-01-29T01:49:16.011Z,0.69
2023-01-29T01:52:19.435Z,0.67
2023-01-29T01:55:24.571Z,0.62
2023-01-29T01:58:30.569Z,0.69
2023-01-29T02:01:32.318Z,0.67
2023-01-29T02:04:52.119Z,0.63
2023-01-29T02:08:12.725Z,0.65
2023-01-29T02:11:14.473Z,0.66
2023-01-29T02:14:16.385Z,0.70
2023-01-29T02:17:19.974Z,0.68
2023-01-29T02:20:27.724Z,0.62
2023-01-29T02:24:00.425Z,0.60
2023-01-29T02:27:19.842Z,0.59
2023-01-29T02:30:33.570Z,0.56
2023-01-29T02:34:02.821Z,0.52
2023-01-29T02:37:12.230Z,0.60
2023-01-29T02:40:18.580Z,0.60
2023-01-29T02:43:38.883Z,0.54
2023-01-29T02:46:54.355Z,0.60
2023-01-29T02:50:04.261Z,0.74
2023-01-29T02:53:15.636Z,0.84
2023-01-29T02:56:24.041Z,0.82
2023-01-29T02:59:32.432Z,0.81
2023-01-29T03:02:37.885Z,0.82
2023-01-29T03:05:58.405Z,0.86
2023-01-29T03:09:07.331Z,0.93
2023-01-29T03:12:33.766Z,0.90
2023-01-29T03:16:01.418Z,0.78
2023-01-29T03:19:38.121Z,0.63
2023-01-29T03:22:56.151Z,0.60
2023-01-29T03:26:18.212Z,0.63
2023-01-29T03:29:39.005Z,0.65
2023-01-29T03:32:44.430Z,0.70
2023-01-29T03:36:02.352Z,0.71
2023-01-29T03:39:08.999Z,0.67
2023-01-29T03:42:26.938Z,0.70
2023-01-29T03:46:18.618Z,0.64
2023-01-29T03:49:53.397Z,0.72
2023-01-29T03:53:08.425Z,0.81
2023-01-29T03:56:15.794Z,0.90
2023-01-29T03:59:31.337Z,0.93
2023-01-29T04:02:56.930Z,0.88
2023-01-29T04:06:09.790Z,0.82
2023-01-29T04:09:25.021Z,0.82
2023-01-29T04:12:34.924Z,0.81
2023-01-29T04:15:46.322Z,0.83
2023-01-29T04:18:48.778Z,0.83
2023-01-29T04:22:02.003Z,0.74
2023-01-29T04:25:15.874Z,0.69
2023-01-29T04:28:43.689Z,0.63
2023-01-29T04:31:57.757Z,0.69
2023-01-29T04:35:29.463Z,0.69
2023-01-29T04:38:49.485Z,0.57
2023-01-29T04:42:22.092Z,0.65
2023-01-29T04:45:41.982Z,0.82
2023-01-29T04:48:58.902Z,0.92
2023-01-29T04:52:20.105Z,0.96
2023-01-29T04:55:51.320Z,0.97
2023-01-29T04:59:03.058Z,0.96
2023-01-29T05:02:06.174Z,0.72
2023-01-29T05:05:09.460Z,0.61
2023-01-29T05:08:14.068Z,0.60
2023-01-29T05:11:17.059Z,0.68
2023-01-29T05:14:20.074Z,0.75
2023-01-29T05:17:21.602Z,0.76
2023-01-29T05:20:23.042Z,0.69
2023-01-29T05:23:24.437Z,0.55
2023-01-29T05:26:45.967Z,0.51
2023-01-29T05:29:47.859Z,0.62
2023-01-29T05:32:49.268Z,0.65
2023-01-29T05:35:51.174Z,0.63
2023-01-29T05:38:52.584Z,0.61
2023-01-29T05:41:54.114Z,0.70
2023-01-29T05:44:55.514Z,0.60
2023-01-29T05:47:58.490Z,0.47
2023-01-29T05:51:01.237Z,0.38
2023-01-29T05:54:02.673Z,0.38
2023-01-29T05:57:04.112Z,0.30
2023-01-29T06:00:06.664Z,0.24
2023-01-29T06:03:13.679Z,0.25
2023-01-29T06:06:15.738Z,0.31
2023-01-29T06:09:17.203Z,0.36
2023-01-29T06:12:18.659Z,0.39
2023-01-29T06:15:20.040Z,0.33
2023-01-29T06:18:21.478Z,0.40
2023-01-29T06:21:22.832Z,0.45
2023-01-29T06:24:24.300Z,0.44
2023-01-29T06:27:25.830Z,0.36
2023-01-29T06:30:28.329Z,0.12
2023-01-29T06:33:29.747Z,-0.02
2023-01-29T06:36:31.291Z,-0.07
2023-01-29T06:39:32.668Z,-0.13
2023-01-29T06:42:37.169Z,-0.25
2023-01-29T06:45:38.581Z,-0.18
2023-01-29T06:48:39.983Z,-0.12
2023-01-29T06:51:41.387Z,-0.13
2023-01-29T06:54:42.824Z,-0.01
2023-01-29T06:57:44.198Z,0.02
2023-01-29T07:00:45.638Z,0.02
2023-01-29T07:03:49.946Z,0.08
2023-01-29T07:06:51.377Z,0.16
2023-01-29T07:09:52.751Z,0.21
2023-01-29T07:12:54.123Z,0.22
2023-01-29T07:16:02.483Z,0.33
2023-01-29T07:19:03.957Z,0.30
2023-01-29T07:22:05.669Z,0.25
2023-01-29T07:25:07.853Z,0.25
2023-01-29T07:28:09.295Z,0.21
2023-01-29T07:31:13.158Z,0.21
2023-01-29T07:34:14.606Z,0.34
2023-01-29T07:37:15.999Z,0.39
2023-01-29T07:40:17.766Z,0.48
2023-01-29T07:43:19.445Z,0.55
2023-01-29T07:46:20.966Z,0.63
2023-01-29T07:49:22.353Z,0.61
2023-01-29T07:52:23.788Z,0.53
2023-01-29T07:55:25.325Z,0.55
2023-01-29T07:58:26.714Z,0.60
2023-01-29T08:01:28.136Z,0.65
2023-01-29T08:04:29.582Z,0.62
2023-01-29T08:07:31.026Z,0.53
2023-01-29T08:10:33.004Z,0.48
2023-01-29T08:13:34.556Z,0.50
2023-01-29T08:16:36.016Z,0.45
2023-01-29T08:19:37.406Z,0.45
2023-01-29T08:22:38.858Z,0.35
2023-01-29T08:25:40.323Z,0.48
2023-01-29T08:28:41.746Z,0.50
2023-01-29T08:31:43.296Z,0.41
2023-01-29T08:34:44.726Z,0.47
2023-01-29T08:37:53.176Z,0.60
2023-01-29T08:40:54.555Z,0.71
2023-01-29T08:43:57.145Z,0.75
2023-01-29T08:46:58.599Z,0.87
2023-01-29T08:49:59.976Z,0.93
2023-01-29T08:53:03.518Z,1.01
2023-01-29T08:56:05.232Z,1.02
2023-01-29T08:59:06.671Z,0.93
2023-01-29T09:02:10.870Z,0.81
2023-01-29T09:05:12.275Z,0.87
2023-01-29T09:08:13.718Z,1.05
2023-01-29T09:11:15.114Z,0.96
2023-01-29T09:14:16.726Z,1.04
2023-01-29T09:17:18.122Z,1.12
2023-01-29T09:20:20.067Z,1.16
2023-01-29T09:23:22.206Z,1.28
2023-01-29T09:26:23.622Z,1.48
2023-01-29T09:29:25.092Z,1.48
2023-01-29T09:32:51.619Z,1.42
2023-01-29T09:35:48.086Z,1.61
2023-01-29T09:38:49.462Z,1.61
2023-01-29T09:42:19.183Z,1.80
2023-01-29T09:45:26.511Z,1.77
2023-01-29T09:48:31.649Z,1.80
2023-01-29T09:51:48.970Z,1.95
2023-01-29T09:55:02.201Z,1.91
2023-01-29T09:58:22.792Z,1.63
2023-01-29T10:01:36.766Z,1.60
2023-01-29T10:04:50.989Z,1.59
2023-01-29T10:08:11.077Z,1.75
2023-01-29T10:11:20.801Z,1.63
2023-01-29T10:14:52.832Z,1.56
2023-01-29T10:18:19.152Z,1.43
2023-01-29T10:21:48.529Z,1.44
2023-01-29T10:24:54.375Z,1.48
2023-01-29T10:27:59.121Z,1.62
2023-01-29T10:31:36.385Z,1.45
2023-01-29T10:34:46.390Z,1.42
2023-01-29T10:37:48.524Z,1.56
2023-01-29T10:41:11.821Z,1.60
2023-01-29T10:44:13.528Z,1.51
2023-01-29T10:47:42.406Z,1.59
2023-01-29T10:50:54.966Z,1.84
2023-01-29T10:54:08.476Z,1.81
2023-01-29T10:57:15.209Z,1.75
2023-01-29T11:00:26.949Z,1.76
2023-01-29T11:03:31.244Z,1.96
2023-01-29T11:06:35.117Z,1.99
2023-01-29T11:09:42.374Z,1.84
2023-01-29T11:12:45.676Z,1.69
2023-01-29T11:15:47.093Z,2.06
2023-01-29T11:18:53.363Z,2.29
2023-01-29T11:22:00.885Z,2.12
2023-01-29T11:25:20.320Z,2.42
2023-01-29T11:28:41.726Z,2.51
2023-01-29T11:31:43.177Z,2.53
2023-01-29T11:35:15.689Z,2.95
2023-01-29T11:38:19.373Z,3.02
2023-01-29T11:41:22.461Z,3.26
2023-01-29T11:44:38.460Z,3.38
2023-01-29T11:47:39.910Z,3.36
2023-01-29T11:50:41.703Z,3.53
2023-01-29T11:53:49.326Z,3.67
2023-01-29T11:56:51.647Z,3.80
2023-01-29T11:59:55.380Z,4.06
2023-01-29T12:03:06.210Z,4.05
2023-01-29T12:06:18.129Z,4.20
2023-01-29T12:09:27.189Z,4.04
2023-01-29T12:12:30.387Z,3.90
2023-01-29T12:15:31.916Z,3.93
2023-01-29T12:18:42.420Z,3.64
2023-01-29T12:21:57.982Z,3.80
2023-01-29T12:25:22.808Z,2.95
2023-01-29T12:28:54.275Z,2.99
2023-01-29T12:32:12.597Z,3.62
2023-01-29T12:35:26.062Z,4.07
2023-01-29T12:38:27.540Z,4.16
2023-01-29T12:41:36.922Z,4.23
2023-01-29T12:44:44.944Z,4.36
2023-01-29T12:47:53.825Z,4.03
2023-01-29T12:51:09.419Z,4.13
2023-01-29T12:54:16.357Z,4.13
2023-01-29T12:57:53.939Z,4.21
2023-01-29T13:01:00.815Z,3.69
2023-01-29T13:04:17.738Z,3.53
2023-01-29T13:07:25.983Z,3.47
2023-01-29T13:10:41.096Z,3.31
2023-01-29T13:14:00.955Z,3.26
2023-01-29T13:17:40.552Z,3.43
2023-01-29T13:20:43.405Z,3.83
2023-01-29T13:23:57.786Z,3.46
2023-01-29T13:26:59.295Z,3.48
2023-01-29T13:30:01.505Z,3.53
2023-01-29T13:33:09.452Z,3.58
2023-01-29T13:36:20.020Z,3.42
2023-01-29T13:39:34.235Z,3.48
2023-01-29T13:42:43.714Z,3.54
2023-01-29T13:45:45.793Z,3.56
2023-01-29T13:48:50.827Z,3.60
2023-01-29T13:51:52.324Z,3.59
2023-01-29T13:54:57.761Z,3.59
2023-01-29T13:58:03.698Z,3.97
2023-01-29T14:01:05.174Z,3.77
2023-01-29T14:04:18.914Z,3.77
2023-01-29T14:07:49.869Z,3.94
2023-01-29T14:11:16.849Z,3.95
2023-01-29T14:14:51.126Z,3.36
2023-01-29T14:18:10.662Z,3.24
2023-01-29T14:21:31.916Z,3.19
2023-01-29T14:24:33.814Z,3.18
2023-01-29T14:27:36.880Z,3.17
2023-01-29T14:30:40.869Z,2.97
2023-01-29T14:33:43.552Z,3.02
2023-01-29T14:36:47.955Z,3.19
2023-01-29T14:39:57.437Z,3.29
2023-01-29T14:43:06.770Z,3.29
2023-01-29T14:46:33.202Z,3.29
2023-01-29T14:49:52.905Z,3.40
2023-01-29T14:53:00.105Z,3.45
2023-01-29T14:56:29.320Z,3.52
2023-01-29T14:59:37.720Z,3.50
2023-01-29T15:02:42.976Z,3.29
2023-01-29T15:05:45.062Z,3.23
2023-01-29T15:08:56.877Z,3.12
2023-01-29T15:12:28.665Z,3.00
2023-01-29T15:15:38.180Z,3.11
2023-01-29T15:18:42.289Z,3.18
2023-01-29T15:22:07.935Z,3.10
2023-01-29T15:25:15.993Z,3.08
2023-01-29T15:28:17.585Z,3.16
2023-01-29T15:31:20.296Z,3.19
2023-01-29T15:34:22.256Z,3.11
2023-01-29T15:37:29.682Z,3.11
2023-01-29T15:40:31.787Z,3.08
2023-01-29T15:43:42.714Z,3.03
2023-01-29T15:46:49.840Z,3.02
2023-01-29T15:49:52.197Z,3.01
2023-01-29T15:52:55.168Z,2.97
2023-01-29T15:55:58.050Z,3.02
2023-01-29T15:59:04.025Z,2.97
2023-01-29T16:02:29.826Z,2.95
2023-01-29T16:05:32.955Z,2.93
2023-01-29T16:08:35.876Z,2.86
2023-01-29T16:11:37.540Z,2.79
2023-01-29T16:14:40.776Z,2.80
2023-01-29T16:17:42.283Z,2.83
2023-01-29T16:20:47.221Z,2.73
2023-01-29T16:23:52.148Z,2.65
2023-01-29T16:27:00.265Z,2.55
2023-01-29T16:30:02.124Z,2.51
2023-01-29T16:33:05.745Z,2.46
2023-01-29T16:36:18.243Z,2.42
2023-01-29T16:39:27.575Z,2.40
2023-01-29T16:42:32.200Z,2.38
2023-01-29T16:45:33.601Z,2.31
2023-01-29T16:48:35.115Z,2.24
2023-01-29T16:51:39.072Z,2.21
2023-01-29T16:54:43.053Z,2.13
2023-01-29T16:57:49.733Z,2.09
2023-01-29T17:01:07.659Z,2.02
2023-01-29T17:04:18.658Z,1.93
2023-01-29T17:07:22.155Z,1.82
2023-01-29T17:10:24.799Z,1.80
2023-01-29T17:13:45.185Z,1.78
2023-01-29T17:16:50.701Z,1.71
2023-01-29T17:19:52.074Z,1.69
2023-01-29T17:22:53.632Z,1.69
2023-01-29T17:25:55.506Z,1.72
2023-01-29T17:28:56.949Z,1.68
2023-01-29T17:32:00.072Z,1.60
2023-01-29T17:35:01.694Z,1.53
2023-01-29T17:38:03.421Z,1.54
2023-01-29T17:41:25.559Z,1.62
2023-01-29T17:44:26.951Z,1.66
2023-01-29T17:47:28.550Z,1.51
2023-01-29T17:50:32.156Z,1.46
2023-01-29T17:53:45.230Z,1.51
2023-01-29T17:56:48.173Z,1.45
2023-01-29T17:59:49.689Z,1.47
2023-01-29T18:02:51.757Z,1.43
2023-01-29T18:05:53.175Z,1.40
2023-01-29T18:08:54.691Z,1.31
2023-01-29T18:11:56.060Z,1.19
2023-01-29T18:14:57.494Z,1.12
2023-01-29T18:17:59.315Z,1.10
2023-01-29T18:21:00.833Z,1.03
2023-01-29T18:24:02.296Z,1.06
2023-01-29T18:27:03.837Z,1.03
2023-01-29T18:30:05.790Z,0.99
2023-01-29T18:33:07.249Z,0.91
2023-01-29T18:36:08.938Z,0.87
2023-01-29T18:39:10.329Z,0.86
2023-01-29T18:42:11.812Z,0.87
2023-01-29T18:45:15.252Z,0.85
2023-01-29T18:48:16.985Z,0.83
2023-01-29T18:51:18.479Z,0.74
2023-01-29T18:54:21.419Z,0.78
2023-01-29T18:58:25.920Z,0.83
2023-01-29T19:00:44.236Z,0.69
2023-01-29T19:03:45.650Z,0.65
2023-01-29T19:06:47.032Z,0.62
2023-01-29T19:09:50.213Z,0.62
2023-01-29T19:12:51.609Z,0.62
2023-01-29T19:15:53.019Z,0.62
2023-01-29T19:18:55.963Z,0.63
2023-01-29T19:21:57.419Z,0.65
2023-01-29T19:24:58.893Z,0.66
2023-01-29T19:28:00.461Z,0.61
2023-01-29T19:31:02.050Z,0.53
2023-01-29T19:34:03.638Z,0.60
2023-01-29T19:37:05.044Z,0.58
2023-01-29T19:40:08.070Z,0.57
2023-01-29T19:43:09.444Z,0.56
2023-01-29T19:46:10.908Z,0.58
2023-01-29T19:49:12.332Z,0.62
2023-01-29T19:52:48.855Z,0.58
2023-01-29T19:56:06.503Z,0.59
2023-01-29T19:59:07.925Z,0.55
2023-01-29T20:02:09.737Z,0.49
2023-01-29T20:05:12.932Z,0.48
2023-01-29T20:08:14.429Z,0.50
2023-01-29T20:11:18.246Z,0.53
2023-01-29T20:14:19.697Z,0.57
2023-01-29T20:17:21.527Z,0.53
2023-01-29T20:20:22.955Z,0.50
2023-01-29T20:23:37.748Z,0.46
2023-01-29T20:26:40.143Z,0.37
2023-01-29T20:29:43.498Z,0.32
2023-01-29T20:32:44.921Z,0.22
2023-01-29T20:35:56.522Z,0.12
2023-01-29T20:38:57.987Z,-0.01
2023-01-29T20:41:59.789Z,-0.04
2023-01-29T20:45:01.229Z,-0.04
2023-01-29T20:48:02.637Z,-0.02
2023-01-29T20:51:07.800Z,-0.03
2023-01-29T20:54:09.317Z,-0.09
2023-01-29T20:57:10.780Z,-0.13
2023-01-29T21:00:15.464Z,-0.11
2023-01-29T21:03:17.053Z,-0.16
2023-01-29T21:06:18.542Z,-0.25
2023-01-29T21:09:20.383Z,-0.32
2023-01-29T21:12:21.790Z,-0.36
2023-01-29T21:15:24.583Z,-0.44
2023-01-29T21:18:26.371Z,-0.49
2023-01-29T21:21:27.809Z,-0.53
2023-01-29T21:24:29.201Z,-0.58
2023-01-29T21:27:30.637Z,-0.66
2023-01-29T21:30:32.263Z,-0.71
2023-01-29T21:33:34.955Z,-0.74
2023-01-29T21:36:36.980Z,-0.75
2023-01-29T21:39:38.407Z,-0.74
2023-01-29T21:42:58.458Z,-0.71
2023-01-29T21:46:11.206Z,-0.68
2023-01-29T21:49:12.679Z,-0.66
2023-01-29T21:52:14.976Z,-0.62
2023-01-29T21:55:16.542Z,-0.64
2023-01-29T21:58:19.702Z,-0.63
2023-01-29T22:01:37.325Z,-0.63
2023-01-29T22:04:40.077Z,-0.71
2023-01-29T22:07:41.518Z,-0.74
2023-01-29T22:10:43.090Z,-0.60
2023-01-29T22:13:44.674Z,-0.50
2023-01-29T22:16:46.218Z,-0.53
2023-01-29T22:19:47.743Z,-0.46
2023-01-29T22:22:49.267Z,-0.37
2023-01-29T22:25:50.670Z,-0.20
2023-01-29T22:28:52.053Z,-0.13
2023-01-29T22:31:53.468Z,-0.02
2023-01-29T22:34:54.864Z,0.10
2023-01-29T22:37:56.290Z,0.03
2023-01-29T22:41:00.219Z,0.03
2023-01-29T22:44:02.178Z,0.01
2023-01-29T22:47:03.581Z,-0.02
2023-01-29T22:50:06.459Z,0.01
2023-01-29T22:53:08.993Z,0.00
2023-01-29T22:56:11.705Z,0.05
2023-01-29T22:59:13.098Z,0.06
2023-01-29T23:02:14.502Z,0.07
2023-01-29T23:05:17.259Z,0.10
2023-01-29T23:08:18.621Z,0.14
2023-01-29T23:11:23.357Z,0.21
2023-01-29T23:14:24.725Z,0.09
2023-01-29T23:17:26.171Z,0.12
2023-01-29T23:20:27.571Z,0.09
2023-01-29T23:23:30.094Z,0.14
2023-01-29T23:26:50.198Z,0.10
2023-01-29T23:29:51.662Z,0.06
2023-01-29T23:32:53.038Z,0.09
2023-01-29T23:35:54.449Z,0.16
2023-01-29T23:38:55.872Z,0.16
2023-01-29T23:41:57.406Z,0.19
2023-01-29T23:44:58.766Z,0.16
2023-01-29T23:48:00.145Z,0.14
2023-01-29T23:51:01.756Z,0.10
2023-01-29T23:54:03.648Z,0.08
2023-01-29T23:57:05.012Z,0.07
